Latest Weather Observations for Casey*

IDT60801

Issued at 4:01 am EST Wednesday 8 July 2015 (issued every 30 minutes, with the page automatically refreshed every 10 minutes)

About weather observations | Map of weather stations | Latest weather observations for ANT | Other Formats
Station Details ID: 300017 Name: CASEY Lat: -66.28 Lon: 110.52 Height: 40.0 m
Data from the previous 72 hours. | See also: Recent months at Casey*
Date/Time
EST
Temp
°C
App
Temp
°C
Dew
Point
Rel
Hum
%
Delta-T
°C
Wind Press
QNH
hPa
Press
MSL
hPa
Rain
since 9 am
mm
Dir
 
Spd
km/h
Gust
km/h
Spd
kts
Gust
kts
08/04:00am -18.1 -27.8 -20.4 82 - NW 32 41 17 22 961.0 - -
08/03:37am -18.2 -27.1 -20.2 84 - NW 28 37 15 20 961.2 - -
08/03:30am -18.3 -24.4 -20.2 85 - N 13 17 7 9 961.3 - -
08/03:00am -19.0 -25.5 -21.1 83 - WNW 15 20 8 11 961.9 - -
08/02:30am -19.4 -25.9 -21.7 82 - WNW 15 22 8 12 962.1 - -
08/02:00am -19.7 -27.2 -22.0 82 - W 20 28 11 15 962.1 - -
08/01:30am -19.9 -26.8 -22.2 82 - NW 17 26 9 14 962.5 - -
08/01:00am -20.1 -27.6 -22.5 81 - NNW 20 28 11 15 962.6 963.1 -
08/12:30am -19.9 -27.2 -22.3 81 - NW 19 28 10 15 962.9 - -
08/12:00am -19.9 -28.1 -22.2 82 - NW 24 33 13 18 963.2 - -
 
Date/Time
EST
Temp
°C
App
Temp
°C
Dew
Point
Rel
Hum
%
Delta-T
°C
Wind Press
QNH
hPa
Press
MSL
hPa
Rain
since 9 am
mm
Dir
 
Spd
km/h
Gust
km/h
Spd
kts
Gust
kts
07/11:30pm -19.3 -26.6 -21.7 81 - NW 19 30 10 16 964.0 - -
07/11:00pm -19.3 -27.1 -21.7 81 - WNW 22 28 12 15 964.8 - -
07/10:30pm -18.9 -27.5 -21.2 82 - W 26 32 14 17 965.2 - -
07/10:00pm -18.8 -27.4 -21.2 81 - W 26 33 14 18 965.7 966.2 -
07/09:30pm -18.7 -27.3 -21.0 82 - W 26 35 14 19 966.2 - -
07/09:00pm -18.7 -26.5 -20.9 83 - W 22 28 12 15 966.7 - -
07/08:30pm -18.6 -26.8 -20.6 84 - W 24 30 13 16 967.3 - -
07/08:00pm -18.5 -27.0 -20.7 83 - W 26 32 14 17 967.8 - -
07/07:30pm -18.4 -26.9 -20.4 84 - W 26 32 14 17 968.4 - -
07/07:00pm -18.3 -27.2 -20.3 84 - W 28 33 15 18 969.1 969.6 -
07/06:30pm -17.7 -25.8 -19.6 85 - WSW 24 33 13 18 969.8 - -
07/06:00pm -17.5 -25.6 -19.4 85 - WSW 24 32 13 17 970.3 - -
07/05:30pm -17.8 -25.9 -19.8 84 - W 24 28 13 15 971.0 - -
07/05:00pm -17.6 -26.1 -19.6 84 - W 26 33 14 18 971.7 - -
07/04:30pm -17.2 -26.5 -19.2 84 - W 30 37 16 20 972.3 - -
07/04:00pm -16.5 -24.6 -18.4 85 - W 24 32 13 17 972.9 973.4 -
07/03:30pm -16.0 -24.1 -17.9 85 - W 24 30 13 16 973.1 - -
07/03:00pm -15.2 -22.5 -17.0 86 - W 20 26 11 14 973.5 - -
07/02:30pm -14.9 -22.2 -16.7 86 - W 20 26 11 14 973.7 - -
07/02:00pm -14.6 -22.6 -16.4 86 - WNW 24 30 13 16 974.1 - -
07/01:30pm -14.0 -22.3 -15.8 86 - WNW 26 32 14 17 974.2 - -
07/01:00pm -13.6 -20.8 -15.3 87 - NW 20 28 11 15 974.0 974.5 -
07/12:30pm -13.4 -21.0 -15.2 86 - NNW 22 32 12 17 973.9 - -
07/12:26pm -13.4 -21.0 -15.2 86 - NNW 22 32 12 17 973.8 - -
07/12:00pm -13.4 -23.8 -15.2 86 - N 37 44 20 24 973.6 - -
07/11:30am -13.5 -24.7 -15.3 86 - N 41 50 22 27 973.0 - -
07/11:00am -13.1 -24.8 -14.8 87 - N 44 52 24 28 972.5 - -
07/10:30am -13.3 -25.4 -15.0 87 - N 46 57 25 31 971.9 - -
07/10:00am -12.9 -24.6 -14.5 88 - NNE 44 57 24 31 971.1 971.6 -
07/09:30am -12.8 -25.6 -14.4 88 - NNE 50 61 27 33 970.4 - -
07/09:00am -12.1 -24.9 -13.5 89 - NNE 50 61 27 33 969.6 - -
07/08:30am -12.1 -26.0 -13.5 89 - NNE 56 69 30 37 968.4 - -
07/08:00am -12.1 -26.2 -13.7 88 - NNE 57 70 31 38 967.5 - -
07/07:33am -11.9 -26.8 -13.3 89 - NNE 61 80 33 43 966.2 - -
07/07:30am -11.8 -26.3 -13.2 89 - NNE 59 76 32 41 966.1 - -
07/07:00am -11.7 -27.3 -13.1 89 - NNE 65 78 35 42 965.2 965.7 -
07/06:30am -10.5 -26.0 -11.8 90 - NNE 65 78 35 42 964.1 - -
07/06:00am -9.9 -25.4 -11.2 90 - NNE 65 76 35 41 962.8 - -
07/05:30am -9.1 -24.5 -10.3 91 - NNE 65 83 35 45 961.9 - -
07/05:16am -8.6 -23.2 -9.8 91 - NNE 61 85 33 46 961.2 - -
07/05:00am -8.4 -23.8 -9.6 91 - NNE 65 78 35 42 960.6 - -
07/04:37am -7.6 -21.2 -8.8 91 - N 56 74 30 40 960.0 - -
07/04:30am -7.3 -21.1 -8.4 92 - N 57 69 31 37 959.8 - -
07/04:00am -6.9 -21.0 -7.8 93 - NNE 59 74 32 40 959.0 959.5 -
07/03:30am -5.1 -19.8 -6.2 92 - N 63 82 34 44 957.8 - -
07/03:23am -3.6 -20.2 -4.6 93 - NNE 74 93 40 50 957.4 - -
07/03:00am -2.1 -20.2 -2.8 95 - NE 83 95 45 51 956.8 - -
07/02:30am -2.1 -20.1 -2.9 94 - NE 82 95 44 51 956.7 - -
07/02:00am -2.3 -20.8 -3.0 95 - NE 85 95 46 51 956.3 - -
07/01:30am -2.0 -18.8 -2.7 95 - NE 76 91 41 49 956.8 - -
07/01:00am -1.6 -17.6 -2.6 93 - NE 72 83 39 45 957.2 957.7 -
07/12:30am -1.0 -16.4 -2.0 93 - NE 69 83 37 45 957.1 - -
07/12:00am -1.0 -16.9 -2.0 93 - NE 72 80 39 43 957.4 - -
 
Date/Time
EST
Temp
°C
App
Temp
°C
Dew
Point
Rel
Hum
%
Delta-T
°C
Wind Press
QNH
hPa
Press
MSL
hPa
Rain
since 9 am
mm
Dir
 
Spd
km/h
Gust
km/h
Spd
kts
Gust
kts
06/11:30pm -1.1 -16.5 -2.2 92 - NE 69 85 37 46 957.2 - -
06/11:00pm -1.8 -18.2 -2.8 93 - NE 74 89 40 48 957.1 - -
06/10:43pm -1.5 -17.9 -2.5 93 - NE 74 93 40 50 957.1 - -
06/10:30pm -1.5 -18.3 -2.6 92 - NE 76 91 41 49 957.1 - -
06/10:00pm -1.6 -18.4 -2.7 92 - NE 76 93 41 50 957.3 957.8 -
06/09:41pm -1.7 -17.7 -2.7 93 - ENE 72 91 39 49 957.6 - -
06/09:30pm -1.6 -17.2 -2.7 92 - ENE 70 87 38 47 958.1 - -
06/09:06pm -1.5 -15.4 -2.6 92 - ENE 61 80 33 43 959.0 - -
06/09:00pm -1.6 -15.9 -2.7 92 - ENE 63 78 34 42 959.1 - -
06/08:30pm -1.8 -16.1 -2.9 92 - ENE 63 78 34 42 959.8 - -
06/08:00pm -1.7 -16.4 -2.8 92 - ENE 65 80 35 43 960.2 - -
06/07:39pm -1.8 -16.9 -2.8 93 - ENE 67 85 36 46 960.8 - -
06/07:30pm -1.7 -18.1 -2.7 93 - ENE 74 87 40 47 960.3 - -
06/07:06pm -1.6 -17.0 -2.6 93 - ENE 69 87 37 47 961.0 - -
06/07:00pm -1.8 -17.2 -2.6 94 - ENE 69 83 37 45 961.2 961.7 -
06/06:47pm -2.4 -17.9 -3.2 94 - ENE 69 78 37 42 961.2 - -
06/06:30pm -2.4 -21.3 -3.2 94 - ENE 87 100 47 54 960.2 - -
06/06:04pm -1.9 -21.5 -2.7 94 - NE 91 109 49 59 959.6 - -
06/06:00pm -1.8 -22.2 -2.6 94 - NE 95 109 51 59 959.3 - -
06/05:30pm -1.9 -23.6 -2.7 94 - NE 102 120 55 65 959.5 - -
06/05:00pm -1.9 -24.0 -2.7 94 - NE 104 122 56 66 960.4 - -
06/04:30pm -1.7 -24.1 -2.4 95 - NE 106 126 57 68 961.1 - -
06/04:25pm -1.7 -23.8 -2.4 95 - NE 104 122 56 66 961.2 - -
06/04:04pm -1.8 -22.4 -2.5 95 - NE 96 115 52 62 963.2 - -
06/04:00pm -1.9 -23.2 -2.6 95 - NE 100 115 54 62 963.0 963.5 -
06/03:35pm -1.6 -22.5 -2.3 95 - NE 98 122 53 66 963.6 - -
06/03:30pm -1.6 -22.5 -2.3 95 - NE 98 115 53 62 963.8 - -
06/03:03pm -1.3 -21.8 -2.0 95 - NE 96 115 52 62 964.6 - -
06/03:00pm -1.3 -22.2 -2.0 95 - NE 98 115 53 62 964.6 - -
06/02:30pm -1.3 -22.2 -2.0 95 - NE 98 120 53 65 965.3 - -
06/02:00pm -1.2 -22.4 -1.9 95 - NE 100 122 54 66 966.0 - -
06/01:30pm -1.0 -21.5 -1.7 95 - NE 96 122 52 66 966.4 - -
06/01:01pm -1.0 -22.6 -1.7 95 - NE 102 120 55 65 967.4 - -
06/01:00pm -1.0 -23.4 -1.7 95 - NE 106 120 57 65 967.2 967.7 -
06/12:59pm -1.0 -23.0 -1.7 95 - NE 104 120 56 65 967.5 - -
06/12:57pm -1.1 -18.2 -1.8 95 - NE 78 104 42 56 968.1 - -
06/12:56pm -1.2 -16.7 -1.9 95 - NNE 70 83 38 45 968.0 - -
06/12:30pm -1.0 -21.8 -1.6 96 - NE 98 117 53 63 967.9 - -
06/12:14pm -1.1 -22.0 -1.8 95 - NE 98 119 53 64 968.3 - -
06/12:00pm -1.0 -22.2 -1.7 95 - NE 100 117 54 63 968.4 - -
06/11:30am -1.1 -22.3 -1.8 95 - NE 100 120 54 65 968.7 - -
06/11:22am -1.1 -21.6 -1.8 95 - NE 96 119 52 64 968.9 - -
06/11:00am -1.2 -22.1 -1.9 95 - NE 98 113 53 61 969.3 - -
06/10:30am -1.3 -21.8 -2.0 95 - NE 96 111 52 60 969.5 - -
06/10:06am -1.3 -20.5 -2.0 95 - NE 89 107 48 58 969.9 - -
06/10:00am -1.7 -21.7 -2.4 95 - NE 93 109 50 59 969.8 970.3 -
06/09:30am -1.6 -21.2 -2.3 95 - NE 91 113 49 61 970.1 - -
06/09:00am -2.1 -21.4 -2.9 94 - ENE 89 107 48 58 970.8 - -
06/08:36am -2.2 -22.3 -3.0 94 - ENE 93 111 50 60 971.3 - -
06/08:30am -2.4 -22.5 -3.2 94 - ENE 93 107 50 58 971.5 - -
06/08:10am -2.4 -21.7 -3.2 94 - ENE 89 107 48 58 971.7 - -
06/08:00am -2.7 -21.7 -3.5 94 - ENE 87 104 47 56 971.8 - -
06/07:55am -3.0 -22.0 -3.8 94 - ENE 87 106 47 57 972.2 - -
06/07:30am -2.8 -23.9 -3.6 94 - ENE 98 109 53 59 972.0 - -
06/07:20am -2.6 -23.1 -3.4 94 - ENE 95 113 51 61 972.0 - -
06/07:15am -2.4 -23.4 -3.2 94 - ENE 98 106 53 57 972.5 - -
06/07:00am -2.4 -19.6 -3.2 94 - ENE 78 96 42 52 973.2 973.7 -
06/06:35am -1.9 -20.0 -2.7 94 - ENE 83 102 45 55 973.8 - -
06/06:30am -1.9 -20.4 -2.9 93 - ENE 85 102 46 55 973.5 - -
06/06:07am -2.2 -19.1 -3.3 92 - ENE 76 95 41 51 974.8 - -
06/06:00am -2.3 -20.3 -3.3 93 - ENE 82 95 44 51 974.5 - -
06/05:48am -2.7 -19.2 -3.8 92 - ENE 74 93 40 50 974.7 - -
06/05:30am -2.7 -18.9 -4.3 89 - E 72 87 39 47 975.3 - -
06/05:00am -2.3 -18.1 -4.2 87 - E 70 83 38 45 976.5 - -
06/04:30am -2.4 -19.3 -4.0 89 - E 76 87 41 47 977.5 - -
06/04:00am -1.6 -17.3 -4.6 80 - E 69 80 37 43 978.0 978.5 -
06/03:30am -1.0 -15.9 -4.9 75 - ENE 65 78 35 42 978.4 - -
06/03:00am -1.4 -14.7 -6.0 71 - E 56 65 30 35 979.2 - -
06/02:44am -1.9 -15.3 -6.4 71 - ENE 56 67 30 36 979.8 - -
06/02:30am -3.6 -12.4 -6.5 80 - E 32 52 17 28 980.9 - -
06/02:00am -1.8 -8.8 -7.5 65 - NE 22 37 12 20 981.5 - -
06/01:30am -5.2 -12.6 -7.3 85 - S 24 30 13 16 981.8 - -
06/01:00am -4.8 -11.8 -6.8 86 - SSE 22 33 12 18 982.0 982.6 -
06/12:30am -5.5 -12.9 -6.9 90 - SSE 24 32 13 17 982.4 - -
06/12:00am -5.2 -10.5 -7.0 87 - S 13 19 7 10 982.4 - -
 
Date/Time
EST
Temp
°C
App
Temp
°C
Dew
Point
Rel
Hum
%
Delta-T
°C
Wind Press
QNH
hPa
Press
MSL
hPa
Rain
since 9 am
mm
Dir
 
Spd
km/h
Gust
km/h
Spd
kts
Gust
kts
05/11:30pm -5.3 -10.3 -8.0 81 - E 11 20 6 11 982.4 - -
05/11:00pm -5.6 -11.4 -8.3 81 - E 15 22 8 12 982.3 - -
05/10:30pm -5.5 -14.1 -8.1 82 - N 30 35 16 19 981.8 - -
05/10:00pm -4.4 -11.5 -7.8 77 - N 22 32 12 17 981.6 982.2 -
05/09:39pm -3.2 -11.4 -7.7 71 - NE 28 35 15 19 981.4 - -
05/09:30pm -2.5 -13.5 -7.2 70 - ENE 43 54 23 29 981.0 - -
05/09:06pm -2.7 -12.9 -7.2 71 - ENE 39 57 21 31 981.1 - -
05/09:00pm -2.7 -13.7 -7.4 70 - ENE 43 57 23 31 981.1 - -
05/08:39pm -2.4 -13.0 -6.6 73 - ENE 41 59 22 32 980.8 - -
05/08:30pm -2.9 -14.4 -7.0 73 - ENE 46 54 25 29 980.7 - -
05/08:00pm -3.0 -14.5 -6.8 75 - ENE 46 61 25 33 980.1 - -
05/07:30pm -3.7 -16.7 -6.6 80 - ENE 54 63 29 34 979.9 - -
05/07:00pm -3.9 -15.0 -6.8 80 - ENE 44 59 24 32 979.6 980.2 -
05/06:30pm -4.4 -15.0 -7.3 80 - NE 41 50 22 27 979.8 - -
05/06:00pm -4.0 -15.0 -6.8 81 - NE 43 54 23 29 979.1 - -
05/05:30pm -4.6 -16.2 -7.2 82 - NE 46 54 25 29 978.4 - -
05/05:00pm -4.2 -16.8 -6.5 84 - NE 52 63 28 34 978.2 - -
05/04:30pm -3.7 -16.7 -6.0 84 - NE 54 69 29 37 977.5 - -
05/04:00pm -3.7 -17.1 -6.2 83 - NE 56 70 30 38 977.4 977.9 -
05/03:30pm -4.0 -17.6 -6.6 82 - NE 57 72 31 39 976.7 - -
05/03:20pm -4.2 -17.8 -6.8 82 - NE 57 76 31 41 976.6 - -
05/03:00pm -4.0 -18.7 -6.6 82 - NE 63 78 34 42 976.0 - -
05/02:30pm -4.5 -20.4 -6.8 84 - NE 69 82 37 44 975.5 - -
05/02:00pm -4.3 -20.4 -6.6 84 - NE 70 85 38 46 974.9 - -
05/01:44pm -4.7 -20.6 -6.8 85 - NE 69 87 37 47 974.2 - -
05/01:30pm -4.5 -20.6 -6.5 86 - NE 70 83 38 45 973.8 - -
05/01:00pm -4.9 -21.7 -6.7 87 - ENE 74 95 40 51 973.4 973.9 -
05/12:30pm -5.4 -23.1 -7.7 84 - NE 78 104 42 56 972.7 - -
05/12:00pm -6.0 -25.4 -7.8 87 - ENE 87 106 47 57 971.5 - -
05/11:30am -6.5 -28.0 -7.9 90 - ENE 98 120 53 65 970.4 - -
05/11:26am -6.9 -27.9 -8.3 90 - ENE 95 115 51 62 970.4 - -
05/11:25am -6.8 -27.0 -8.2 90 - ENE 91 104 49 56 970.8 - -
05/11:00am -7.0 -31.0 -8.2 91 - ENE 111 132 60 71 968.9 - -
05/10:30am -7.1 -31.9 -8.5 90 - ENE 115 135 62 73 967.2 - -
05/10:00am -7.3 -33.4 -8.5 91 - ENE 122 141 66 76 967.2 967.7 -
05/09:30am -7.5 -34.0 -8.7 91 - ENE 124 148 67 80 966.4 - -
05/09:01am -7.8 -35.5 -9.0 91 - ENE 130 148 70 80 965.7 - -
05/09:00am -7.7 -35.4 -8.9 91 - ENE 130 146 70 79 966.0 - -
05/08:30am -8.3 -36.4 -9.5 91 - ENE 132 150 71 81 966.6 - -
05/08:09am -8.7 -35.3 -10.0 90 - ENE 124 145 67 78 966.4 - -
05/08:00am -8.7 -36.1 -9.9 91 - ENE 128 143 69 77 967.1 - -
05/07:30am -8.7 -35.7 -9.9 91 - ENE 126 146 68 79 967.3 - -
05/07:02am -8.6 -35.2 -9.8 91 - ENE 124 143 67 77 968.4 - -
05/07:00am -8.7 -35.3 -9.9 91 - ENE 124 139 67 75 968.9 969.4 -
05/06:30am -8.7 -36.8 -9.9 91 - ENE 132 152 71 82 968.4 - -
05/06:25am -8.7 -36.4 -9.9 91 - ENE 130 152 70 82 968.5 - -

Other Formats:

Comma delimited format used in spreadsheet applications
http://www.bom.gov.au/fwo/IDT60803/IDT60803.89611.axf

JavaScript Object Notation format (JSON) in row-major order
http://www.bom.gov.au/fwo/IDT60803/IDT60803.89611.json